sensor_id;sensor_type;location;lat;lon;timestamp;P1;durP1;ratioP1;P2;durP2;ratioP2
56746;SDS011;42623;49.978;9.966;2022-07-23T00:00:08;10.67;;;6.53;;
56746;SDS011;42623;49.978;9.966;2022-07-23T00:00:19;9.55;;;5.43;;
56746;SDS011;42623;49.978;9.966;2022-07-23T00:00:29;8.85;;;4.97;;
56746;SDS011;42623;49.978;9.966;2022-07-23T00:00:40;8.30;;;4.90;;
56746;SDS011;42623;49.978;9.966;2022-07-23T00:00:50;9.10;;;4.90;;
56746;SDS011;42623;49.978;9.966;2022-07-23T00:01:00;10.33;;;5.10;;
56746;SDS011;42623;49.978;9.966;2022-07-23T00:01:10;11.23;;;5.63;;
56746;SDS011;42623;49.978;9.966;2022-07-23T00:01:21;11.95;;;6.65;;
56746;SDS011;42623;49.978;9.966;2022-07-23T00:01:31;12.13;;;6.88;;
56746;SDS011;42623;49.978;9.966;2022-07-23T00:01:42;11.17;;;6.43;;
56746;SDS011;42623;49.978;9.966;2022-07-23T00:01:52;9.50;;;5.50;;
56746;SDS011;42623;49.978;9.966;2022-07-23T00:02:02;48.00;;;26.00;;
56746;SDS011;42623;49.978;9.966;2022-07-23T00:02:12;147.13;;;80.80;;
56746;SDS011;42623;49.978;9.966;2022-07-23T00:02:22;192.80;;;102.77;;
56746;SDS011;42623;49.978;9.966;2022-07-23T00:02:33;170.13;;;89.33;;
56746;SDS011;42623;49.978;9.966;2022-07-23T00:02:43;112.87;;;56.63;;
56746;SDS011;42623;49.978;9.966;2022-07-23T00:02:53;71.77;;;37.27;;
56746;SDS011;42623;49.978;9.966;2022-07-23T00:03:04;42.77;;;22.63;;
56746;SDS011;42623;49.978;9.966;2022-07-23T00:03:14;14.67;;;8.63;;
56746;SDS011;42623;49.978;9.966;2022-07-23T00:03:24;11.23;;;6.73;;
56746;SDS011;42623;49.978;9.966;2022-07-23T00:03:34;10.70;;;6.10;;
56746;SDS011;42623;49.978;9.966;2022-07-23T00:03:44;10.23;;;5.93;;
56746;SDS011;42623;49.978;9.966;2022-07-23T00:03:55;10.13;;;5.60;;
56746;SDS011;42623;49.978;9.966;2022-07-23T00:04:05;9.20;;;5.15;;
56746;SDS011;42623;49.978;9.966;2022-07-23T00:04:15;8.30;;;4.80;;
56746;SDS011;42623;49.978;9.966;2022-07-23T00:04:25;8.67;;;5.43;;
56746;SDS011;42623;49.978;9.966;2022-07-23T00:04:35;9.57;;;6.13;;
56746;SDS011;42623;49.978;9.966;2022-07-23T00:04:45;20.37;;;10.80;;
56746;SDS011;42623;49.978;9.966;2022-07-23T00:04:56;20.00;;;10.53;;
56746;SDS011;42623;49.978;9.966;2022-07-23T00:05:06;27.00;;;14.60;;
56746;SDS011;42623;49.978;9.966;2022-07-23T00:05:16;85.03;;;45.73;;
56746;SDS011;42623;49.978;9.966;2022-07-23T00:05:26;93.77;;;50.87;;
56746;SDS011;42623;49.978;9.966;2022-07-23T00:05:36;86.10;;;45.70;;
56746;SDS011;42623;49.978;9.966;2022-07-23T00:05:46;20.77;;;11.13;;
56746;SDS011;42623;49.978;9.966;2022-07-23T00:05:57;14.00;;;6.57;;
56746;SDS011;42623;49.978;9.966;2022-07-23T00:06:07;16.02;;;7.55;;
56746;SDS011;42623;49.978;9.966;2022-07-23T00:06:17;15.20;;;8.03;;
56746;SDS011;42623;49.978;9.966;2022-07-23T00:06:27;13.43;;;7.40;;
56746;SDS011;42623;49.978;9.966;2022-07-23T00:06:38;10.90;;;6.70;;
56746;SDS011;42623;49.978;9.966;2022-07-23T00:06:48;11.07;;;6.38;;
56746;SDS011;42623;49.978;9.966;2022-07-23T00:06:58;12.13;;;6.77;;
56746;SDS011;42623;49.978;9.966;2022-07-23T00:07:08;11.40;;;6.33;;
56746;SDS011;42623;49.978;9.966;2022-07-23T00:07:18;10.50;;;5.70;;
56746;SDS011;42623;49.978;9.966;2022-07-23T00:07:28;9.73;;;5.43;;
56746;SDS011;42623;49.978;9.966;2022-07-23T00:07:39;10.07;;;5.53;;
56746;SDS011;42623;49.978;9.966;2022-07-23T00:07:49;10.30;;;5.67;;
56746;SDS011;42623;49.978;9.966;2022-07-23T00:07:59;10.20;;;5.50;;
56746;SDS011;42623;49.978;9.966;2022-07-23T00:08:09;9.87;;;5.27;;
56746;SDS011;42623;49.978;9.966;2022-07-23T00:08:19;10.35;;;4.95;;
56746;SDS011;42623;49.978;9.966;2022-07-23T00:08:30;10.00;;;5.07;;
56746;SDS011;42623;49.978;9.966;2022-07-23T00:08:40;9.27;;;5.27;;
56746;SDS011;42623;49.978;9.966;2022-07-23T00:08:50;8.77;;;5.40;;
56746;SDS011;42623;49.978;9.966;2022-07-23T00:09:00;8.85;;;5.15;;
56746;SDS011;42623;49.978;9.966;2022-07-23T00:09:11;10.30;;;5.93;;
56746;SDS011;42623;49.978;9.966;2022-07-23T00:09:21;10.37;;;5.93;;
56746;SDS011;42623;49.978;9.966;2022-07-23T00:09:31;10.80;;;6.17;;
56746;SDS011;42623;49.978;9.966;2022-07-23T00:09:41;9.07;;;5.03;;
56746;SDS011;42623;49.978;9.966;2022-07-23T00:09:52;8.23;;;4.77;;
56746;SDS011;42623;49.978;9.966;2022-07-23T00:10:02;8.23;;;4.80;;
56746;SDS011;42623;49.978;9.966;2022-07-23T00:10:13;8.82;;;4.97;;
56746;SDS011;42623;49.978;9.966;2022-07-23T00:10:23;8.97;;;4.73;;
56746;SDS011;42623;49.978;9.966;2022-07-23T00:10:33;9.00;;;4.47;;
56746;SDS011;42623;49.978;9.966;2022-07-23T00:10:43;8.80;;;4.47;;
56746;SDS011;42623;49.978;9.966;2022-07-23T00:10:53;8.80;;;4.65;;
56746;SDS011;42623;49.978;9.966;2022-07-23T00:11:04;8.90;;;4.93;;
56746;SDS011;42623;49.978;9.966;2022-07-23T00:11:14;8.70;;;4.70;;
56746;SDS011;42623;49.978;9.966;2022-07-23T00:11:24;8.40;;;4.50;;
56746;SDS011;42623;49.978;9.966;2022-07-23T00:11:34;9.02;;;4.95;;
56746;SDS011;42623;49.978;9.966;2022-07-23T00:11:44;9.00;;;5.07;;
56746;SDS011;42623;49.978;9.966;2022-07-23T00:11:54;10.00;;;5.07;;
56746;SDS011;42623;49.978;9.966;2022-07-23T00:12:05;8.90;;;4.50;;
56746;SDS011;42623;49.978;9.966;2022-07-23T00:12:15;9.17;;;4.63;;
56746;SDS011;42623;49.978;9.966;2022-07-23T00:12:25;9.40;;;5.00;;
56746;SDS011;42623;49.978;9.966;2022-07-23T00:12:35;9.97;;;5.47;;
56746;SDS011;42623;49.978;9.966;2022-07-23T00:12:46;9.63;;;5.43;;
56746;SDS011;42623;49.978;9.966;2022-07-23T00:12:56;8.98;;;5.18;;
56746;SDS011;42623;49.978;9.966;2022-07-23T00:13:06;8.83;;;5.07;;
56746;SDS011;42623;49.978;9.966;2022-07-23T00:13:16;9.40;;;5.20;;
56746;SDS011;42623;49.978;9.966;2022-07-23T00:13:27;9.47;;;5.50;;
56746;SDS011;42623;49.978;9.966;2022-07-23T00:13:37;9.30;;;5.53;;
56746;SDS011;42623;49.978;9.966;2022-07-23T00:13:47;8.80;;;5.13;;
56746;SDS011;42623;49.978;9.966;2022-07-23T00:13:58;8.82;;;5.03;;
56746;SDS011;42623;49.978;9.966;2022-07-23T00:14:08;9.57;;;5.07;;
56746;SDS011;42623;49.978;9.966;2022-07-23T00:14:18;9.83;;;5.30;;
56746;SDS011;42623;49.978;9.966;2022-07-23T00:14:28;9.33;;;4.97;;
56746;SDS011;42623;49.978;9.966;2022-07-23T00:14:39;8.60;;;4.63;;
56746;SDS011;42623;49.978;9.966;2022-07-23T00:14:49;8.73;;;4.40;;
56746;SDS011;42623;49.978;9.966;2022-07-23T00:14:59;9.63;;;5.17;;
56746;SDS011;42623;49.978;9.966;2022-07-23T00:15:09;9.23;;;5.10;;
56746;SDS011;42623;49.978;9.966;2022-07-23T00:15:19;9.33;;;5.17;;
56746;SDS011;42623;49.978;9.966;2022-07-23T00:15:30;8.75;;;4.45;;
56746;SDS011;42623;49.978;9.966;2022-07-23T00:15:40;8.60;;;4.53;;
56746;SDS011;42623;49.978;9.966;2022-07-23T00:15:50;8.10;;;4.43;;
56746;SDS011;42623;49.978;9.966;2022-07-23T00:16:00;7.93;;;4.60;;
56746;SDS011;42623;49.978;9.966;2022-07-23T00:16:10;7.63;;;4.57;;
56746;SDS011;42623;49.978;9.966;2022-07-23T00:16:21;8.50;;;4.60;;
56746;SDS011;42623;49.978;9.966;2022-07-23T00:16:31;8.97;;;5.03;;
56746;SDS011;42623;49.978;9.966;2022-07-23T00:16:41;9.53;;;5.27;;
56746;SDS011;42623;49.978;9.966;2022-07-23T00:16:51;8.90;;;5.33;;
56746;SDS011;42623;49.978;9.966;2022-07-23T00:17:01;8.33;;;4.83;;
56746;SDS011;42623;49.978;9.966;2022-07-23T00:17:11;7.70;;;4.50;;
56746;SDS011;42623;49.978;9.966;2022-07-23T00:17:21;7.72;;;4.20;;
56746;SDS011;42623;49.978;9.966;2022-07-23T00:17:32;9.60;;;4.60;;
56746;SDS011;42623;49.978;9.966;2022-07-23T00:17:42;9.90;;;5.00;;
56746;SDS011;42623;49.978;9.966;2022-07-23T00:17:52;9.57;;;5.20;;
56746;SDS011;42623;49.978;9.966;2022-07-23T00:18:02;8.57;;;5.10;;
56746;SDS011;42623;49.978;9.966;2022-07-23T00:18:12;8.70;;;4.97;;
56746;SDS011;42623;49.978;9.966;2022-07-23T00:18:22;9.23;;;5.37;;
56746;SDS011;42623;49.978;9.966;2022-07-23T00:18:33;9.00;;;5.37;;
56746;SDS011;42623;49.978;9.966;2022-07-23T00:18:43;8.67;;;5.37;;
56746;SDS011;42623;49.978;9.966;2022-07-23T00:18:53;8.40;;;4.97;;
56746;SDS011;42623;49.978;9.966;2022-07-23T00:19:03;7.90;;;4.53;;
56746;SDS011;42623;49.978;9.966;2022-07-23T00:19:13;7.95;;;4.47;;
56746;SDS011;42623;49.978;9.966;2022-07-23T00:19:24;8.03;;;4.43;;
56746;SDS011;42623;49.978;9.966;2022-07-23T00:19:34;8.03;;;4.87;;
56746;SDS011;42623;49.978;9.966;2022-07-23T00:19:44;8.47;;;5.13;;
56746;SDS011;42623;49.978;9.966;2022-07-23T00:19:54;8.40;;;5.40;;
56746;SDS011;42623;49.978;9.966;2022-07-23T00:20:04;9.33;;;5.03;;
56746;SDS011;42623;49.978;9.966;2022-07-23T00:20:15;9.03;;;4.73;;
56746;SDS011;42623;49.978;9.966;2022-07-23T00:20:25;9.37;;;4.87;;
56746;SDS011;42623;49.978;9.966;2022-07-23T00:20:35;9.05;;;5.15;;
56746;SDS011;42623;49.978;9.966;2022-07-23T00:20:45;9.40;;;5.50;;
56746;SDS011;42623;49.978;9.966;2022-07-23T00:20:55;10.13;;;5.27;;
56746;SDS011;42623;49.978;9.966;2022-07-23T00:21:06;10.23;;;5.30;;
56746;SDS011;42623;49.978;9.966;2022-07-23T00:21:16;10.02;;;5.13;;
56746;SDS011;42623;49.978;9.966;2022-07-23T00:21:27;9.53;;;5.10;;
56746;SDS011;42623;49.978;9.966;2022-07-23T00:21:37;8.87;;;4.83;;
56746;SDS011;42623;49.978;9.966;2022-07-23T00:21:47;8.55;;;4.57;;
56746;SDS011;42623;49.978;9.966;2022-07-23T00:21:57;7.60;;;4.50;;
56746;SDS011;42623;49.978;9.966;2022-07-23T00:22:07;7.63;;;4.40;;
56746;SDS011;42623;49.978;9.966;2022-07-23T00:22:17;8.17;;;4.60;;
56746;SDS011;42623;49.978;9.966;2022-07-23T00:22:27;9.43;;;5.10;;
56746;SDS011;42623;49.978;9.966;2022-07-23T00:22:45;59.10;;;29.77;;
56746;SDS011;42623;49.978;9.966;2022-07-23T00:22:55;219.23;;;113.22;;
56746;SDS011;42623;49.978;9.966;2022-07-23T00:23:06;242.47;;;125.20;;
56746;SDS011;42623;49.978;9.966;2022-07-23T00:23:16;116.43;;;57.78;;
56746;SDS011;42623;49.978;9.966;2022-07-23T00:23:26;63.90;;;30.70;;
56746;SDS011;42623;49.978;9.966;2022-07-23T00:23:38;50.05;;;23.90;;
56746;SDS011;42623;49.978;9.966;2022-07-23T00:23:48;39.13;;;19.03;;
56746;SDS011;42623;49.978;9.966;2022-07-23T00:23:58;32.60;;;15.77;;
56746;SDS011;42623;49.978;9.966;2022-07-23T00:24:08;14.20;;;7.00;;
56746;SDS011;42623;49.978;9.966;2022-07-23T00:24:19;13.25;;;6.85;;
56746;SDS011;42623;49.978;9.966;2022-07-23T00:24:29;10.20;;;6.10;;
56746;SDS011;42623;49.978;9.966;2022-07-23T00:24:39;9.67;;;5.77;;
56746;SDS011;42623;49.978;9.966;2022-07-23T00:24:49;8.90;;;5.23;;
56746;SDS011;42623;49.978;9.966;2022-07-23T00:24:59;8.70;;;4.87;;
56746;SDS011;42623;49.978;9.966;2022-07-23T00:25:10;8.75;;;4.78;;
56746;SDS011;42623;49.978;9.966;2022-07-23T00:25:20;9.03;;;4.67;;
56746;SDS011;42623;49.978;9.966;2022-07-23T00:25:31;9.43;;;5.35;;
56746;SDS011;42623;49.978;9.966;2022-07-23T00:25:41;9.30;;;5.33;;
56746;SDS011;42623;49.978;9.966;2022-07-23T00:25:51;8.87;;;5.43;;
56746;SDS011;42623;49.978;9.966;2022-07-23T00:26:01;7.80;;;4.65;;
56746;SDS011;42623;49.978;9.966;2022-07-23T00:26:12;26.23;;;14.57;;
56746;SDS011;42623;49.978;9.966;2022-07-23T00:26:22;37.77;;;20.97;;
56746;SDS011;42623;49.978;9.966;2022-07-23T00:26:32;39.50;;;21.97;;
56746;SDS011;42623;49.978;9.966;2022-07-23T00:26:42;22.77;;;12.30;;
56746;SDS011;42623;49.978;9.966;2022-07-23T00:26:52;12.07;;;6.10;;
56746;SDS011;42623;49.978;9.966;2022-07-23T00:27:02;43.03;;;21.80;;
56746;SDS011;42623;49.978;9.966;2022-07-23T00:27:13;44.80;;;24.42;;
56746;SDS011;42623;49.978;9.966;2022-07-23T00:27:23;45.63;;;25.67;;
56746;SDS011;42623;49.978;9.966;2022-07-23T00:27:34;15.63;;;9.80;;
56746;SDS011;42623;49.978;9.966;2022-07-23T00:27:44;13.63;;;7.77;;
56746;SDS011;42623;49.978;9.966;2022-07-23T00:27:54;10.07;;;6.03;;
56746;SDS011;42623;49.978;9.966;2022-07-23T00:28:04;8.90;;;5.25;;
56746;SDS011;42623;49.978;9.966;2022-07-23T00:28:14;9.17;;;5.23;;
56746;SDS011;42623;49.978;9.966;2022-07-23T00:28:25;9.03;;;5.07;;
56746;SDS011;42623;49.978;9.966;2022-07-23T00:28:35;9.80;;;5.37;;
56746;SDS011;42623;49.978;9.966;2022-07-23T00:28:45;9.55;;;5.20;;
56746;SDS011;42623;49.978;9.966;2022-07-23T00:28:55;10.33;;;5.27;;
56746;SDS011;42623;49.978;9.966;2022-07-23T00:29:05;9.73;;;5.53;;
56746;SDS011;42623;49.978;9.966;2022-07-23T00:29:15;9.70;;;5.50;;
56746;SDS011;42623;49.978;9.966;2022-07-23T00:29:26;9.00;;;5.60;;
56746;SDS011;42623;49.978;9.966;2022-07-23T00:29:36;9.33;;;5.13;;
56746;SDS011;42623;49.978;9.966;2022-07-23T00:29:46;9.93;;;5.17;;
56746;SDS011;42623;49.978;9.966;2022-07-23T00:29:56;12.48;;;7.32;;
56746;SDS011;42623;49.978;9.966;2022-07-23T00:30:06;22.40;;;14.97;;
56746;SDS011;42623;49.978;9.966;2022-07-23T00:30:17;30.43;;;20.63;;
56746;SDS011;42623;49.978;9.966;2022-07-23T00:30:27;34.10;;;23.10;;
56746;SDS011;42623;49.978;9.966;2022-07-23T00:30:41;21.55;;;14.38;;
56746;SDS011;42623;49.978;9.966;2022-07-23T00:30:51;12.33;;;7.30;;
56746;SDS011;42623;49.978;9.966;2022-07-23T00:31:02;11.32;;;6.15;;
56746;SDS011;42623;49.978;9.966;2022-07-23T00:31:12;11.80;;;6.43;;
56746;SDS011;42623;49.978;9.966;2022-07-23T00:31:22;10.87;;;6.00;;
56746;SDS011;42623;49.978;9.966;2022-07-23T00:31:32;10.03;;;5.53;;
56746;SDS011;42623;49.978;9.966;2022-07-23T00:31:43;9.80;;;5.00;;
56746;SDS011;42623;49.978;9.966;2022-07-23T00:31:53;9.90;;;4.93;;
56746;SDS011;42623;49.978;9.966;2022-07-23T00:32:03;9.33;;;4.77;;
56746;SDS011;42623;49.978;9.966;2022-07-23T00:32:13;8.47;;;4.67;;
56746;SDS011;42623;49.978;9.966;2022-07-23T00:32:24;8.80;;;5.10;;
56746;SDS011;42623;49.978;9.966;2022-07-23T00:32:46;8.82;;;4.85;;
56746;SDS011;42623;49.978;9.966;2022-07-23T00:33:01;11.85;;;5.07;;
56746;SDS011;42623;49.978;9.966;2022-07-23T00:33:11;10.27;;;4.90;;
56746;SDS011;42623;49.978;9.966;2022-07-23T00:33:21;9.43;;;4.83;;
56746;SDS011;42623;49.978;9.966;2022-07-23T00:33:32;9.40;;;4.50;;
56746;SDS011;42623;49.978;9.966;2022-07-23T00:33:42;8.83;;;4.57;;
56746;SDS011;42623;49.978;9.966;2022-07-23T00:33:52;8.50;;;4.43;;
56746;SDS011;42623;49.978;9.966;2022-07-23T00:34:06;8.75;;;4.68;;
56746;SDS011;42623;49.978;9.966;2022-07-23T00:34:16;8.63;;;4.73;;
56746;SDS011;42623;49.978;9.966;2022-07-23T00:34:26;9.00;;;4.80;;
56746;SDS011;42623;49.978;9.966;2022-07-23T00:34:37;8.83;;;4.80;;
56746;SDS011;42623;49.978;9.966;2022-07-23T00:34:47;9.13;;;5.00;;
56746;SDS011;42623;49.978;9.966;2022-07-23T00:34:57;9.07;;;5.10;;
56746;SDS011;42623;49.978;9.966;2022-07-23T00:35:07;9.70;;;5.40;;
56746;SDS011;42623;49.978;9.966;2022-07-23T00:35:19;9.57;;;5.73;;
56746;SDS011;42623;49.978;9.966;2022-07-23T00:35:30;13.10;;;7.85;;
56746;SDS011;42623;49.978;9.966;2022-07-23T00:35:40;19.60;;;11.50;;
56746;SDS011;42623;49.978;9.966;2022-07-23T00:35:51;33.67;;;21.27;;
56746;SDS011;42623;49.978;9.966;2022-07-23T00:36:01;39.67;;;26.77;;
56746;SDS011;42623;49.978;9.966;2022-07-23T00:36:12;39.67;;;27.48;;
56746;SDS011;42623;49.978;9.966;2022-07-23T00:36:22;26.23;;;17.93;;
56746;SDS011;42623;49.978;9.966;2022-07-23T00:36:33;15.25;;;9.95;;
56746;SDS011;42623;49.978;9.966;2022-07-23T00:36:43;14.80;;;8.98;;
56746;SDS011;42623;49.978;9.966;2022-07-23T00:36:53;15.43;;;9.70;;
56746;SDS011;42623;49.978;9.966;2022-07-23T00:37:03;16.40;;;9.40;;
56746;SDS011;42623;49.978;9.966;2022-07-23T00:37:14;15.20;;;7.87;;
56746;SDS011;42623;49.978;9.966;2022-07-23T00:37:24;13.40;;;6.63;;
56746;SDS011;42623;49.978;9.966;2022-07-23T00:37:34;11.30;;;5.50;;
56746;SDS011;42623;49.978;9.966;2022-07-23T00:37:44;8.50;;;4.70;;
56746;SDS011;42623;49.978;9.966;2022-07-23T00:37:55;8.33;;;4.63;;
56746;SDS011;42623;49.978;9.966;2022-07-23T00:38:05;7.90;;;4.68;;
56746;SDS011;42623;49.978;9.966;2022-07-23T00:38:15;8.67;;;5.20;;
56746;SDS011;42623;49.978;9.966;2022-07-23T00:38:26;8.57;;;5.20;;
56746;SDS011;42623;49.978;9.966;2022-07-23T00:38:36;9.07;;;5.00;;
56746;SDS011;42623;49.978;9.966;2022-07-23T00:38:46;8.52;;;4.85;;
56746;SDS011;42623;49.978;9.966;2022-07-23T00:38:56;8.17;;;4.53;;
56746;SDS011;42623;49.978;9.966;2022-07-23T00:39:07;7.83;;;4.77;;
56746;SDS011;42623;49.978;9.966;2022-07-23T00:39:17;7.67;;;4.43;;
56746;SDS011;42623;49.978;9.966;2022-07-23T00:39:27;7.75;;;4.40;;
56746;SDS011;42623;49.978;9.966;2022-07-23T00:39:37;7.70;;;4.20;;
56746;SDS011;42623;49.978;9.966;2022-07-23T00:39:48;8.57;;;4.20;;
56746;SDS011;42623;49.978;9.966;2022-07-23T00:39:58;9.05;;;4.32;;
56746;SDS011;42623;49.978;9.966;2022-07-23T00:40:08;9.53;;;4.50;;
56746;SDS011;42623;49.978;9.966;2022-07-23T00:40:19;9.30;;;4.70;;
56746;SDS011;42623;49.978;9.966;2022-07-23T00:40:29;9.10;;;4.70;;
56746;SDS011;42623;49.978;9.966;2022-07-23T00:40:40;8.48;;;4.32;;
56746;SDS011;42623;49.978;9.966;2022-07-23T00:40:50;8.77;;;4.43;;
56746;SDS011;42623;49.978;9.966;2022-07-23T00:41:00;8.27;;;4.47;;
56746;SDS011;42623;49.978;9.966;2022-07-23T00:41:11;14.07;;;5.80;;
56746;SDS011;42623;49.978;9.966;2022-07-23T00:41:21;13.83;;;5.83;;
56746;SDS011;42623;49.978;9.966;2022-07-23T00:41:31;14.20;;;6.03;;
56746;SDS011;42623;49.978;9.966;2022-07-23T00:41:41;8.73;;;4.87;;
56746;SDS011;42623;49.978;9.966;2022-07-23T00:41:52;9.10;;;5.07;;
56746;SDS011;42623;49.978;9.966;2022-07-23T00:42:02;9.07;;;5.10;;
56746;SDS011;42623;49.978;9.966;2022-07-23T00:42:12;9.17;;;5.23;;
56746;SDS011;42623;49.978;9.966;2022-07-23T00:42:22;8.67;;;4.87;;
56746;SDS011;42623;49.978;9.966;2022-07-23T00:42:32;9.60;;;4.93;;
56746;SDS011;42623;49.978;9.966;2022-07-23T00:42:42;9.57;;;4.83;;
56746;SDS011;42623;49.978;9.966;2022-07-23T00:42:53;10.00;;;4.97;;
56746;SDS011;42623;49.978;9.966;2022-07-23T00:43:03;8.80;;;4.60;;
56746;SDS011;42623;49.978;9.966;2022-07-23T00:43:13;8.80;;;4.60;;
56746;SDS011;42623;49.978;9.966;2022-07-23T00:43:24;8.73;;;5.10;;
56746;SDS011;42623;49.978;9.966;2022-07-23T00:43:34;8.95;;;5.05;;
56746;SDS011;42623;49.978;9.966;2022-07-23T00:43:45;8.90;;;5.30;;
56746;SDS011;42623;49.978;9.966;2022-07-23T00:43:55;8.87;;;4.97;;
56746;SDS011;42623;49.978;9.966;2022-07-23T00:44:21;8.70;;;5.27;;
56746;SDS011;42623;49.978;9.966;2022-07-23T00:44:32;9.98;;;5.10;;
56746;SDS011;42623;49.978;9.966;2022-07-23T00:44:42;9.87;;;4.97;;
56746;SDS011;42623;49.978;9.966;2022-07-23T00:44:53;9.30;;;4.78;;
56746;SDS011;42623;49.978;9.966;2022-07-23T00:45:04;8.88;;;4.60;;
56746;SDS011;42623;49.978;9.966;2022-07-23T00:45:14;8.77;;;4.93;;
56746;SDS011;42623;49.978;9.966;2022-07-23T00:45:24;8.97;;;5.20;;
56746;SDS011;42623;49.978;9.966;2022-07-23T00:45:34;8.68;;;5.18;;
56746;SDS011;42623;49.978;9.966;2022-07-23T00:45:45;8.53;;;5.00;;
56746;SDS011;42623;49.978;9.966;2022-07-23T00:45:55;8.20;;;4.70;;
56746;SDS011;42623;49.978;9.966;2022-07-23T00:46:05;8.17;;;4.77;;
56746;SDS011;42623;49.978;9.966;2022-07-23T00:46:19;8.45;;;4.55;;
56746;SDS011;42623;49.978;9.966;2022-07-23T00:46:29;9.48;;;5.00;;
56746;SDS011;42623;49.978;9.966;2022-07-23T00:46:43;9.67;;;4.93;;
56746;SDS011;42623;49.978;9.966;2022-07-23T00:46:55;8.13;;;4.63;;
56746;SDS011;42623;49.978;9.966;2022-07-23T00:47:06;7.68;;;4.55;;
56746;SDS011;42623;49.978;9.966;2022-07-23T00:47:16;8.43;;;4.68;;
56746;SDS011;42623;49.978;9.966;2022-07-23T00:47:26;9.07;;;5.07;;
56746;SDS011;42623;49.978;9.966;2022-07-23T00:47:36;11.17;;;5.43;;
56746;SDS011;42623;49.978;9.966;2022-07-23T00:47:46;10.47;;;5.13;;
56746;SDS011;42623;49.978;9.966;2022-07-23T00:47:57;9.97;;;4.63;;
56746;SDS011;42623;49.978;9.966;2022-07-23T00:48:07;7.90;;;4.50;;
56746;SDS011;42623;49.978;9.966;2022-07-23T00:48:17;8.37;;;4.67;;
56746;SDS011;42623;49.978;9.966;2022-07-23T00:48:27;8.60;;;4.77;;
56746;SDS011;42623;49.978;9.966;2022-07-23T00:48:37;8.97;;;4.47;;
56746;SDS011;42623;49.978;9.966;2022-07-23T00:48:48;8.70;;;4.37;;
56746;SDS011;42623;49.978;9.966;2022-07-23T00:48:58;8.43;;;4.50;;
56746;SDS011;42623;49.978;9.966;2022-07-23T00:49:08;8.10;;;4.67;;
56746;SDS011;42623;49.978;9.966;2022-07-23T00:49:19;8.15;;;4.60;;
56746;SDS011;42623;49.978;9.966;2022-07-23T00:49:30;8.80;;;4.43;;
56746;SDS011;42623;49.978;9.966;2022-07-23T00:49:40;9.10;;;4.93;;
56746;SDS011;42623;49.978;9.966;2022-07-23T00:49:50;9.20;;;5.10;;
56746;SDS011;42623;49.978;9.966;2022-07-23T00:50:00;8.73;;;5.17;;
56746;SDS011;42623;49.978;9.966;2022-07-23T00:50:11;8.83;;;5.17;;
56746;SDS011;42623;49.978;9.966;2022-07-23T00:50:21;8.53;;;5.13;;
56746;SDS011;42623;49.978;9.966;2022-07-23T00:50:31;8.47;;;4.90;;
56746;SDS011;42623;49.978;9.966;2022-07-23T00:50:42;8.75;;;4.57;;
56746;SDS011;42623;49.978;9.966;2022-07-23T00:50:52;9.00;;;4.67;;
56746;SDS011;42623;49.978;9.966;2022-07-23T00:51:03;9.07;;;4.72;;
56746;SDS011;42623;49.978;9.966;2022-07-23T00:51:14;8.97;;;4.73;;
56746;SDS011;42623;49.978;9.966;2022-07-23T00:51:25;8.88;;;4.68;;
56746;SDS011;42623;49.978;9.966;2022-07-23T00:51:35;8.37;;;4.67;;
56746;SDS011;42623;49.978;9.966;2022-07-23T00:51:45;7.67;;;4.47;;
56746;SDS011;42623;49.978;9.966;2022-07-23T00:51:56;8.25;;;4.28;;
56746;SDS011;42623;49.978;9.966;2022-07-23T00:52:06;9.40;;;4.43;;
56746;SDS011;42623;49.978;9.966;2022-07-23T00:52:16;9.75;;;5.00;;
56746;SDS011;42623;49.978;9.966;2022-07-23T00:52:27;9.07;;;5.20;;
56746;SDS011;42623;49.978;9.966;2022-07-23T00:52:37;8.23;;;5.13;;
56746;SDS011;42623;49.978;9.966;2022-07-23T00:52:47;7.88;;;4.68;;
56746;SDS011;42623;49.978;9.966;2022-07-23T00:52:58;8.27;;;4.70;;
56746;SDS011;42623;49.978;9.966;2022-07-23T00:53:08;8.90;;;4.70;;
56746;SDS011;42623;49.978;9.966;2022-07-23T00:53:18;8.75;;;4.70;;
56746;SDS011;42623;49.978;9.966;2022-07-23T00:53:29;8.70;;;4.63;;
56746;SDS011;42623;49.978;9.966;2022-07-23T00:53:41;8.57;;;5.13;;
56746;SDS011;42623;49.978;9.966;2022-07-23T00:53:51;8.90;;;5.25;;
56746;SDS011;42623;49.978;9.966;2022-07-23T00:54:02;8.52;;;4.93;;
56746;SDS011;42623;49.978;9.966;2022-07-23T00:54:12;8.13;;;4.73;;
56746;SDS011;42623;49.978;9.966;2022-07-23T00:54:24;9.07;;;5.00;;
56746;SDS011;42623;49.978;9.966;2022-07-23T00:54:34;9.05;;;5.05;;
56746;SDS011;42623;49.978;9.966;2022-07-23T00:54:45;8.93;;;5.03;;
56746;SDS011;42623;49.978;9.966;2022-07-23T00:54:55;8.00;;;4.77;;
56746;SDS011;42623;49.978;9.966;2022-07-23T00:55:05;8.68;;;4.53;;
56746;SDS011;42623;49.978;9.966;2022-07-23T00:55:16;8.80;;;4.50;;
56746;SDS011;42623;49.978;9.966;2022-07-23T00:55:26;8.63;;;4.43;;
56746;SDS011;42623;49.978;9.966;2022-07-23T00:55:37;8.33;;;4.40;;
56746;SDS011;42623;49.978;9.966;2022-07-23T00:55:47;8.45;;;4.60;;
56746;SDS011;42623;49.978;9.966;2022-07-23T00:55:57;8.33;;;4.57;;
56746;SDS011;42623;49.978;9.966;2022-07-23T00:56:08;8.35;;;4.70;;
56746;SDS011;42623;49.978;9.966;2022-07-23T00:56:19;8.32;;;4.70;;
56746;SDS011;42623;49.978;9.966;2022-07-23T00:56:29;10.07;;;5.23;;
56746;SDS011;42623;49.978;9.966;2022-07-23T00:56:40;10.33;;;5.27;;
56746;SDS011;42623;49.978;9.966;2022-07-23T00:56:51;10.70;;;5.30;;
56746;SDS011;42623;49.978;9.966;2022-07-23T00:57:01;9.23;;;4.90;;
56746;SDS011;42623;49.978;9.966;2022-07-23T00:57:11;8.83;;;4.87;;
56746;SDS011;42623;49.978;9.966;2022-07-23T00:57:21;8.40;;;4.73;;
56746;SDS011;42623;49.978;9.966;2022-07-23T00:57:31;7.83;;;4.80;;
56746;SDS011;42623;49.978;9.966;2022-07-23T00:57:42;7.80;;;4.90;;
56746;SDS011;42623;49.978;9.966;2022-07-23T00:57:52;8.27;;;5.10;;
56746;SDS011;42623;49.978;9.966;2022-07-23T00:58:02;8.67;;;5.33;;
56746;SDS011;42623;49.978;9.966;2022-07-23T00:58:13;9.00;;;5.20;;
56746;SDS011;42623;49.978;9.966;2022-07-23T00:58:23;8.23;;;4.83;;
56746;SDS011;42623;49.978;9.966;2022-07-23T00:58:34;7.90;;;4.40;;
56746;SDS011;42623;49.978;9.966;2022-07-23T00:58:45;7.68;;;4.40;;
56746;SDS011;42623;49.978;9.966;2022-07-23T00:58:55;8.07;;;4.67;;
56746;SDS011;42623;49.978;9.966;2022-07-23T00:59:06;9.32;;;4.93;;
56746;SDS011;42623;49.978;9.966;2022-07-23T00:59:16;10.00;;;5.50;;
56746;SDS011;42623;49.978;9.966;2022-07-23T00:59:26;10.43;;;5.57;;
56746;SDS011;42623;49.978;9.966;2022-07-23T00:59:38;10.70;;;5.97;;
56746;SDS011;42623;49.978;9.966;2022-07-23T00:59:48;9.77;;;5.32;;
56746;SDS011;42623;49.978;9.966;2022-07-23T00:59:58;8.70;;;4.90;;
56746;SDS011;42623;49.978;9.966;2022-07-23T01:00:10;7.83;;;4.83;;
56746;SDS011;42623;49.978;9.966;2022-07-23T01:00:20;10.13;;;5.03;;
56746;SDS011;42623;49.978;9.966;2022-07-23T01:00:31;10.63;;;5.33;;
56746;SDS011;42623;49.978;9.966;2022-07-23T01:00:41;10.33;;;5.20;;
56746;SDS011;42623;49.978;9.966;2022-07-23T01:00:51;10.07;;;5.03;;
56746;SDS011;42623;49.978;9.966;2022-07-23T01:01:01;10.48;;;5.22;;
56746;SDS011;42623;49.978;9.966;2022-07-23T01:01:11;11.00;;;4.93;;
56746;SDS011;42623;49.978;9.966;2022-07-23T01:01:22;9.03;;;4.80;;
56746;SDS011;42623;49.978;9.966;2022-07-23T01:01:32;8.50;;;4.50;;
56746;SDS011;42623;49.978;9.966;2022-07-23T01:01:42;8.18;;;4.40;;
56746;SDS011;42623;49.978;9.966;2022-07-23T01:01:54;8.02;;;4.50;;
56746;SDS011;42623;49.978;9.966;2022-07-23T01:02:04;7.87;;;4.47;;
56746;SDS011;42623;49.978;9.966;2022-07-23T01:02:14;8.10;;;4.43;;
56746;SDS011;42623;49.978;9.966;2022-07-23T01:02:25;9.13;;;4.70;;
56746;SDS011;42623;49.978;9.966;2022-07-23T01:02:35;9.60;;;5.07;;